RYR23ML LIMF-LICT
Flight info
| Callsign | RYR23ML |
|---|---|
| Flight time | 1h 23m |
| Altitude | 39000 |
| Route | LAGEN DCT EVROG DCT BAKRO DCT VELAD DCT TINTO DCT POKAV DCT BETOT DCT RUVIP DCT RONAB/N0371F190 M740 ADUKA |
| Aircraft | B738/M-SDE3FGILRWY/SB1 |
Departure
| Time | 2026-04-26 20:24 |
|---|---|
| Airport | Turin Airport (LIMF) |
Arrival
| Time | 2026-04-26 21:48 |
|---|---|
| Airport | Vincenzo Florio Airport Trapani-Birgi (LICT) |
| Time | Latitude | Longitude | Altitude | Speed | Heading |
|---|---|---|---|---|---|
| 2026-04-26 19:54 | 45.19063 | 7.64504 | 985 ft | 0 kts | 257° |
| 2026-04-26 20:16 | 45.19064 | 7.64507 | 985 ft | 2 kts | 257° |
| 2026-04-26 20:16 | 45.19070 | 7.64542 | 993 ft | 4 kts | 257° |
| 2026-04-26 20:16 | 45.19076 | 7.64580 | 985 ft | 4 kts | 255° |
| 2026-04-26 20:17 | 45.19084 | 7.64616 | 985 ft | 4 kts | 249° |
| 2026-04-26 20:17 | 45.19096 | 7.64649 | 994 ft | 4 kts | 220° |
| 2026-04-26 20:17 | 45.19107 | 7.64658 | 988 ft | 0 kts | 182° |
| 2026-04-26 20:20 | 45.19092 | 7.64658 | 985 ft | 5 kts | 182° |
| 2026-04-26 20:21 | 45.19045 | 7.64654 | 993 ft | 9 kts | 182° |
| 2026-04-26 20:21 | 45.18969 | 7.64650 | 992 ft | 13 kts | 182° |
| 2026-04-26 20:21 | 45.18865 | 7.64643 | 984 ft | 17 kts | 182° |
| 2026-04-26 20:21 | 45.18743 | 7.64635 | 991 ft | 18 kts | 182° |
| 2026-04-26 20:22 | 45.18654 | 7.64649 | 989 ft | 7 kts | 149° |
| 2026-04-26 20:22 | 45.18651 | 7.64652 | 990 ft | 0 kts | 146° |
| 2026-04-26 20:23 | 45.18641 | 7.64664 | 988 ft | 7 kts | 136° |
| 2026-04-26 20:23 | 45.18617 | 7.64783 | 980 ft | 20 kts | 86° |
| 2026-04-26 20:23 | 45.18766 | 7.64880 | 980 ft | 43 kts | 3° |
| 2026-04-26 20:24 | 45.19300 | 7.64914 | 983 ft | 109 kts | 2° |
| 2026-04-26 20:24 | 45.20256 | 7.64974 | 993 ft | 163 kts | 2° |
| 2026-04-26 20:24 | 45.21391 | 7.65064 | 1562 ft | 167 kts | 3° |
| 2026-04-26 20:24 | 45.22568 | 7.65142 | 2216 ft | 171 kts | 1° |
| 2026-04-26 20:25 | 45.23756 | 7.65205 | 2910 ft | 172 kts | 1° |
| 2026-04-26 20:25 | 45.24563 | 7.65247 | 3372 ft | 171 kts | 2° |
| 2026-04-26 20:25 | 45.26114 | 7.65611 | 4159 ft | 176 kts | 33° |
| 2026-04-26 20:25 | 45.26822 | 7.66979 | 4702 ft | 177 kts | 80° |
| 2026-04-26 20:26 | 45.26721 | 7.68696 | 5277 ft | 180 kts | 105° |
| 2026-04-26 20:26 | 45.26039 | 7.70288 | 5493 ft | 203 kts | 144° |
| 2026-04-26 20:26 | 45.24786 | 7.71410 | 5671 ft | 224 kts | 149° |
| 2026-04-26 20:26 | 45.23399 | 7.72617 | 5869 ft | 245 kts | 149° |
| 2026-04-26 20:27 | 45.21874 | 7.73956 | 6079 ft | 268 kts | 148° |
| 2026-04-26 20:27 | 45.20272 | 7.75384 | 6683 ft | 275 kts | 148° |
| 2026-04-26 20:27 | 45.18644 | 7.76854 | 7434 ft | 279 kts | 147° |
| 2026-04-26 20:27 | 45.17003 | 7.78351 | 8180 ft | 283 kts | 147° |
| 2026-04-26 20:28 | 45.15353 | 7.79868 | 8950 ft | 286 kts | 147° |
| 2026-04-26 20:28 | 45.13670 | 7.81422 | 9723 ft | 289 kts | 147° |
| 2026-04-26 20:28 | 45.11974 | 7.82996 | 10468 ft | 295 kts | 146° |
| 2026-04-26 20:28 | 45.10192 | 7.84652 | 10706 ft | 319 kts | 146° |
| 2026-04-26 20:29 | 45.08273 | 7.86438 | 10924 ft | 340 kts | 146° |
| 2026-04-26 20:29 | 45.06260 | 7.88311 | 11473 ft | 350 kts | 146° |
| 2026-04-26 20:29 | 45.04212 | 7.90217 | 12207 ft | 354 kts | 146° |
| 2026-04-26 20:29 | 45.02150 | 7.92137 | 12972 ft | 357 kts | 146° |
| 2026-04-26 20:30 | 45.00064 | 7.94078 | 13693 ft | 362 kts | 147° |
| 2026-04-26 20:30 | 44.97949 | 7.96045 | 14415 ft | 366 kts | 147° |
| 2026-04-26 20:30 | 44.95809 | 7.98032 | 15149 ft | 370 kts | 147° |
| 2026-04-26 20:30 | 44.93642 | 8.00043 | 15875 ft | 375 kts | 147° |
| 2026-04-26 20:31 | 44.91451 | 8.02076 | 16582 ft | 379 kts | 147° |
| 2026-04-26 20:31 | 44.89232 | 8.04131 | 17260 ft | 384 kts | 147° |
| 2026-04-26 20:31 | 44.86983 | 8.06213 | 17924 ft | 389 kts | 147° |
| 2026-04-26 20:31 | 44.84710 | 8.08315 | 18600 ft | 393 kts | 148° |
| 2026-04-26 20:32 | 44.82417 | 8.10436 | 19260 ft | 396 kts | 148° |
| 2026-04-26 20:32 | 44.80099 | 8.12576 | 19878 ft | 401 kts | 148° |
| 2026-04-26 20:32 | 44.77759 | 8.14733 | 20498 ft | 403 kts | 148° |
| 2026-04-26 20:32 | 44.75402 | 8.16907 | 21101 ft | 407 kts | 148° |
| 2026-04-26 20:33 | 44.73022 | 8.19098 | 21682 ft | 411 kts | 148° |
| 2026-04-26 20:33 | 44.70622 | 8.21305 | 22258 ft | 414 kts | 148° |
| 2026-04-26 20:33 | 44.68204 | 8.23525 | 22809 ft | 417 kts | 148° |
| 2026-04-26 20:33 | 44.65765 | 8.25763 | 23349 ft | 420 kts | 148° |
| 2026-04-26 20:34 | 44.63311 | 8.28011 | 23874 ft | 423 kts | 148° |
| 2026-04-26 20:34 | 44.60870 | 8.30248 | 24368 ft | 426 kts | 148° |
| 2026-04-26 20:34 | 44.58345 | 8.32559 | 24841 ft | 430 kts | 148° |
| 2026-04-26 20:34 | 44.55865 | 8.34826 | 25296 ft | 433 kts | 148° |
| 2026-04-26 20:35 | 44.53333 | 8.37137 | 25748 ft | 436 kts | 148° |
| 2026-04-26 20:35 | 44.50748 | 8.39495 | 26197 ft | 439 kts | 148° |
| 2026-04-26 20:35 | 44.48183 | 8.41833 | 26619 ft | 441 kts | 148° |
| 2026-04-26 20:35 | 44.45635 | 8.44153 | 27014 ft | 445 kts | 148° |
| 2026-04-26 20:36 | 44.43035 | 8.46518 | 27421 ft | 447 kts | 148° |
| 2026-04-26 20:36 | 44.40418 | 8.48893 | 27811 ft | 450 kts | 148° |
| 2026-04-26 20:36 | 44.37856 | 8.51439 | 28167 ft | 454 kts | 143° |
| 2026-04-26 20:36 | 44.35409 | 8.54249 | 28510 ft | 457 kts | 141° |
| 2026-04-26 20:37 | 44.32988 | 8.57148 | 28883 ft | 460 kts | 140° |
| 2026-04-26 20:37 | 44.30567 | 8.60083 | 29242 ft | 462 kts | 140° |
| 2026-04-26 20:37 | 44.28131 | 8.63026 | 29570 ft | 464 kts | 140° |
| 2026-04-26 20:37 | 44.25672 | 8.65970 | 29871 ft | 467 kts | 141° |
| 2026-04-26 20:38 | 44.23189 | 8.68918 | 30179 ft | 469 kts | 141° |
| 2026-04-26 20:38 | 44.20694 | 8.71860 | 30503 ft | 471 kts | 141° |
| 2026-04-26 20:38 | 44.18187 | 8.74803 | 30813 ft | 473 kts | 141° |
| 2026-04-26 20:38 | 44.15663 | 8.77759 | 31076 ft | 475 kts | 141° |
| 2026-04-26 20:39 | 44.13133 | 8.80715 | 31436 ft | 474 kts | 141° |
| 2026-04-26 20:39 | 44.11459 | 8.82671 | 31716 ft | 473 kts | 141° |
| 2026-04-26 20:39 | 44.08095 | 8.86596 | 32255 ft | 472 kts | 141° |
| 2026-04-26 20:39 | 44.05582 | 8.89527 | 32610 ft | 471 kts | 142° |
| 2026-04-26 20:40 | 44.03071 | 8.92451 | 32937 ft | 471 kts | 142° |
| 2026-04-26 20:40 | 44.00559 | 8.95372 | 33289 ft | 470 kts | 142° |
| 2026-04-26 20:40 | 43.98052 | 8.98285 | 33612 ft | 470 kts | 141° |
| 2026-04-26 20:40 | 43.95547 | 9.01193 | 33959 ft | 469 kts | 141° |
| 2026-04-26 20:41 | 43.93045 | 9.04094 | 34256 ft | 469 kts | 142° |
| 2026-04-26 20:41 | 43.90540 | 9.06993 | 34567 ft | 469 kts | 142° |
| 2026-04-26 20:41 | 43.88036 | 9.09889 | 34915 ft | 468 kts | 142° |
| 2026-04-26 20:41 | 43.85541 | 9.12772 | 35247 ft | 467 kts | 142° |
| 2026-04-26 20:42 | 43.83048 | 9.15649 | 35540 ft | 467 kts | 142° |
| 2026-04-26 20:42 | 43.80555 | 9.18523 | 35832 ft | 466 kts | 142° |
| 2026-04-26 20:42 | 43.78071 | 9.21383 | 36131 ft | 465 kts | 142° |
| 2026-04-26 20:42 | 43.75581 | 9.24248 | 36414 ft | 464 kts | 142° |
| 2026-04-26 20:43 | 43.73091 | 9.27108 | 36626 ft | 466 kts | 142° |
| 2026-04-26 20:43 | 43.70599 | 9.29968 | 36872 ft | 465 kts | 142° |
| 2026-04-26 20:43 | 43.68121 | 9.32808 | 37266 ft | 461 kts | 142° |
| 2026-04-26 20:43 | 43.65670 | 9.35616 | 37697 ft | 456 kts | 142° |
| 2026-04-26 20:44 | 43.63232 | 9.38400 | 38042 ft | 453 kts | 142° |
| 2026-04-26 20:44 | 43.60806 | 9.41171 | 38228 ft | 453 kts | 142° |
| 2026-04-26 20:44 | 43.58368 | 9.43955 | 38326 ft | 456 kts | 142° |
| 2026-04-26 20:44 | 43.55923 | 9.46743 | 38509 ft | 456 kts | 142° |
| 2026-04-26 20:45 | 43.53481 | 9.49528 | 38775 ft | 454 kts | 143° |
| 2026-04-26 20:45 | 43.51081 | 9.52259 | 39002 ft | 454 kts | 143° |
| 2026-04-26 20:45 | 43.48646 | 9.55025 | 39152 ft | 454 kts | 143° |
| 2026-04-26 20:46 | 43.43739 | 9.60590 | 39166 ft | 458 kts | 143° |
| 2026-04-26 20:46 | 43.38838 | 9.66141 | 39159 ft | 455 kts | 143° |
| 2026-04-26 20:47 | 43.33967 | 9.71647 | 39163 ft | 452 kts | 143° |
| 2026-04-26 20:47 | 43.29124 | 9.77107 | 39169 ft | 450 kts | 143° |
| 2026-04-26 20:48 | 43.25078 | 9.81661 | 39174 ft | 448 kts | 143° |
| 2026-04-26 20:48 | 43.20308 | 9.87079 | 39179 ft | 448 kts | 142° |
| 2026-04-26 20:49 | 43.15172 | 9.91855 | 39202 ft | 446 kts | 153° |
| 2026-04-26 20:49 | 43.09756 | 9.96026 | 39181 ft | 447 kts | 153° |
| 2026-04-26 20:50 | 43.04314 | 10.00202 | 39176 ft | 450 kts | 153° |
| 2026-04-26 20:50 | 42.98860 | 10.04434 | 39180 ft | 452 kts | 153° |
| 2026-04-26 20:51 | 42.93387 | 10.08708 | 39179 ft | 454 kts | 153° |
| 2026-04-26 20:51 | 42.87893 | 10.12992 | 39178 ft | 456 kts | 153° |
| 2026-04-26 20:52 | 42.82380 | 10.17281 | 39183 ft | 456 kts | 153° |
| 2026-04-26 20:52 | 42.76865 | 10.21564 | 39181 ft | 456 kts | 153° |
| 2026-04-26 20:53 | 42.71351 | 10.25834 | 39180 ft | 456 kts | 153° |
| 2026-04-26 20:53 | 42.65845 | 10.30089 | 39182 ft | 455 kts | 153° |
| 2026-04-26 20:54 | 42.60352 | 10.34326 | 39181 ft | 454 kts | 153° |
| 2026-04-26 20:54 | 42.54866 | 10.38550 | 39187 ft | 452 kts | 153° |
| 2026-04-26 20:55 | 42.49396 | 10.42752 | 39174 ft | 452 kts | 153° |
| 2026-04-26 20:55 | 42.43931 | 10.46940 | 39174 ft | 450 kts | 153° |
| 2026-04-26 20:56 | 42.38521 | 10.51081 | 39176 ft | 449 kts | 153° |
| 2026-04-26 20:56 | 42.33078 | 10.55238 | 39176 ft | 449 kts | 153° |
| 2026-04-26 20:57 | 42.27637 | 10.59383 | 39187 ft | 449 kts | 153° |
| 2026-04-26 20:57 | 42.22192 | 10.63522 | 39193 ft | 449 kts | 153° |
| 2026-04-26 20:58 | 42.16751 | 10.67655 | 39182 ft | 449 kts | 153° |
| 2026-04-26 20:58 | 42.11300 | 10.71791 | 39183 ft | 450 kts | 153° |
| 2026-04-26 20:59 | 42.05836 | 10.75915 | 39183 ft | 451 kts | 154° |
| 2026-04-26 20:59 | 42.00126 | 10.79323 | 39183 ft | 449 kts | 161° |
| 2026-04-26 21:00 | 41.94278 | 10.82319 | 39176 ft | 450 kts | 161° |
| 2026-04-26 21:00 | 41.88432 | 10.85344 | 39176 ft | 451 kts | 161° |
| 2026-04-26 21:01 | 41.82591 | 10.88431 | 39185 ft | 451 kts | 160° |
| 2026-04-26 21:01 | 41.76756 | 10.91530 | 39179 ft | 451 kts | 161° |
| 2026-04-26 21:02 | 41.70919 | 10.94621 | 39192 ft | 451 kts | 160° |
| 2026-04-26 21:02 | 41.65080 | 10.97705 | 39176 ft | 451 kts | 160° |
| 2026-04-26 21:03 | 41.59248 | 11.00780 | 39178 ft | 450 kts | 160° |
| 2026-04-26 21:03 | 41.53427 | 11.03844 | 39185 ft | 450 kts | 161° |
| 2026-04-26 21:04 | 41.47610 | 11.06898 | 39182 ft | 449 kts | 161° |
| 2026-04-26 21:04 | 41.41840 | 11.09926 | 39175 ft | 448 kts | 161° |
| 2026-04-26 21:05 | 41.36037 | 11.12967 | 39168 ft | 448 kts | 161° |
| 2026-04-26 21:05 | 41.30235 | 11.16003 | 39164 ft | 448 kts | 161° |
| 2026-04-26 21:06 | 41.24442 | 11.19030 | 39168 ft | 447 kts | 161° |
| 2026-04-26 21:06 | 41.18657 | 11.22046 | 39185 ft | 447 kts | 161° |
| 2026-04-26 21:07 | 41.12872 | 11.25056 | 39181 ft | 447 kts | 161° |
| 2026-04-26 21:07 | 41.07086 | 11.28062 | 39187 ft | 447 kts | 161° |
| 2026-04-26 21:08 | 41.01298 | 11.31062 | 39183 ft | 447 kts | 161° |
| 2026-04-26 21:08 | 40.95509 | 11.34058 | 39183 ft | 447 kts | 161° |
| 2026-04-26 21:09 | 40.89720 | 11.37050 | 39185 ft | 447 kts | 161° |
| 2026-04-26 21:09 | 40.83921 | 11.40040 | 39181 ft | 447 kts | 161° |
| 2026-04-26 21:10 | 40.78129 | 11.43016 | 39183 ft | 447 kts | 161° |
| 2026-04-26 21:10 | 40.72337 | 11.45983 | 39177 ft | 447 kts | 161° |
| 2026-04-26 21:11 | 40.66545 | 11.48954 | 39190 ft | 447 kts | 161° |
| 2026-04-26 21:11 | 40.60751 | 11.51919 | 39178 ft | 447 kts | 161° |
| 2026-04-26 21:12 | 40.54950 | 11.54880 | 39170 ft | 447 kts | 161° |
| 2026-04-26 21:12 | 40.49144 | 11.57839 | 39166 ft | 448 kts | 161° |
| 2026-04-26 21:13 | 40.43339 | 11.60793 | 39167 ft | 448 kts | 161° |
| 2026-04-26 21:13 | 40.37565 | 11.63724 | 39167 ft | 448 kts | 161° |
| 2026-04-26 21:14 | 40.31716 | 11.66686 | 39164 ft | 448 kts | 161° |
| 2026-04-26 21:14 | 40.25948 | 11.69600 | 39167 ft | 447 kts | 161° |
| 2026-04-26 21:15 | 40.20145 | 11.72530 | 39165 ft | 447 kts | 161° |
| 2026-04-26 21:15 | 40.14345 | 11.75453 | 39166 ft | 446 kts | 161° |
| 2026-04-26 21:16 | 40.08549 | 11.78368 | 39166 ft | 446 kts | 161° |
| 2026-04-26 21:16 | 40.02755 | 11.81270 | 39166 ft | 446 kts | 161° |
| 2026-04-26 21:17 | 39.96957 | 11.84153 | 39166 ft | 446 kts | 161° |
| 2026-04-26 21:17 | 39.91160 | 11.87033 | 39169 ft | 447 kts | 161° |
| 2026-04-26 21:18 | 39.85228 | 11.89247 | 39165 ft | 442 kts | 176° |
| 2026-04-26 21:18 | 39.79114 | 11.89597 | 39164 ft | 440 kts | 181° |
| 2026-04-26 21:19 | 39.73002 | 11.89798 | 39168 ft | 440 kts | 181° |
| 2026-04-26 21:19 | 39.66885 | 11.90041 | 39161 ft | 440 kts | 180° |
| 2026-04-26 21:20 | 39.60835 | 11.90316 | 39131 ft | 423 kts | 180° |
| 2026-04-26 21:20 | 39.57944 | 11.90454 | 39139 ft | 408 kts | 180° |
| 2026-04-26 21:20 | 39.55152 | 11.90587 | 39126 ft | 395 kts | 181° |
| 2026-04-26 21:21 | 39.49683 | 11.90838 | 39168 ft | 397 kts | 181° |
| 2026-04-26 21:21 | 39.44114 | 11.91090 | 38883 ft | 402 kts | 181° |
| 2026-04-26 21:21 | 39.41306 | 11.91218 | 38136 ft | 408 kts | 181° |
| 2026-04-26 21:22 | 39.38428 | 11.91348 | 37198 ft | 420 kts | 181° |
| 2026-04-26 21:22 | 39.35469 | 11.91482 | 36256 ft | 431 kts | 180° |
| 2026-04-26 21:22 | 39.32442 | 11.91620 | 35342 ft | 440 kts | 180° |
| 2026-04-26 21:23 | 39.26198 | 11.91907 | 33441 ft | 454 kts | 180° |
| 2026-04-26 21:23 | 39.23096 | 11.92053 | 32634 ft | 449 kts | 180° |
| 2026-04-26 21:23 | 39.19947 | 11.92201 | 31846 ft | 445 kts | 180° |
| 2026-04-26 21:23 | 39.16876 | 11.92344 | 31108 ft | 439 kts | 180° |
| 2026-04-26 21:24 | 39.13846 | 11.92485 | 30389 ft | 433 kts | 180° |
| 2026-04-26 21:24 | 39.10854 | 11.92622 | 29656 ft | 427 kts | 180° |
| 2026-04-26 21:24 | 39.07901 | 11.92757 | 29035 ft | 423 kts | 180° |
| 2026-04-26 21:24 | 39.05005 | 11.92890 | 28511 ft | 421 kts | 180° |
| 2026-04-26 21:25 | 39.02058 | 11.93023 | 28054 ft | 417 kts | 180° |
| 2026-04-26 21:25 | 38.99162 | 11.93155 | 27583 ft | 414 kts | 180° |
| 2026-04-26 21:25 | 38.96297 | 11.93285 | 27119 ft | 411 kts | 180° |
| 2026-04-26 21:25 | 38.93440 | 11.93415 | 26658 ft | 408 kts | 180° |
| 2026-04-26 21:26 | 38.90611 | 11.93544 | 26203 ft | 405 kts | 180° |
| 2026-04-26 21:26 | 38.87802 | 11.93672 | 25750 ft | 403 kts | 180° |
| 2026-04-26 21:26 | 38.85048 | 11.93797 | 25305 ft | 400 kts | 180° |
| 2026-04-26 21:26 | 38.82241 | 11.93925 | 24848 ft | 397 kts | 180° |
| 2026-04-26 21:27 | 38.79489 | 11.94050 | 24408 ft | 394 kts | 180° |
| 2026-04-26 21:27 | 38.76790 | 11.94173 | 23970 ft | 392 kts | 181° |
| 2026-04-26 21:27 | 38.74079 | 11.94295 | 23524 ft | 389 kts | 181° |
| 2026-04-26 21:27 | 38.71384 | 11.94416 | 23086 ft | 386 kts | 181° |
| 2026-04-26 21:28 | 38.68705 | 11.94537 | 22649 ft | 384 kts | 181° |
| 2026-04-26 21:28 | 38.66047 | 11.94657 | 22202 ft | 381 kts | 181° |
| 2026-04-26 21:28 | 38.63406 | 11.94776 | 21782 ft | 378 kts | 181° |
| 2026-04-26 21:28 | 38.60783 | 11.94894 | 21355 ft | 376 kts | 181° |
| 2026-04-26 21:29 | 38.58178 | 11.95015 | 20924 ft | 374 kts | 179° |
| 2026-04-26 21:29 | 38.55634 | 11.95686 | 20469 ft | 378 kts | 159° |
| 2026-04-26 21:29 | 38.53354 | 11.97327 | 20086 ft | 376 kts | 149° |
| 2026-04-26 21:29 | 38.51189 | 11.99187 | 19663 ft | 374 kts | 147° |
| 2026-04-26 21:30 | 38.49058 | 12.01068 | 19259 ft | 371 kts | 147° |
| 2026-04-26 21:30 | 38.46935 | 12.02928 | 18835 ft | 369 kts | 148° |
| 2026-04-26 21:30 | 38.44822 | 12.04757 | 18421 ft | 366 kts | 148° |
| 2026-04-26 21:30 | 38.43397 | 12.05978 | 18146 ft | 364 kts | 148° |
| 2026-04-26 21:31 | 38.40621 | 12.08340 | 17602 ft | 360 kts | 148° |
| 2026-04-26 21:31 | 38.38544 | 12.10100 | 17194 ft | 358 kts | 148° |
| 2026-04-26 21:31 | 38.36479 | 12.11848 | 16792 ft | 355 kts | 148° |
| 2026-04-26 21:31 | 38.34428 | 12.13582 | 16430 ft | 352 kts | 148° |
| 2026-04-26 21:32 | 38.32402 | 12.15297 | 16054 ft | 349 kts | 148° |
| 2026-04-26 21:32 | 38.30385 | 12.17006 | 15656 ft | 347 kts | 148° |
| 2026-04-26 21:32 | 38.28380 | 12.18703 | 15257 ft | 345 kts | 148° |
| 2026-04-26 21:32 | 38.26388 | 12.20390 | 14852 ft | 343 kts | 148° |
| 2026-04-26 21:33 | 38.24402 | 12.22069 | 14453 ft | 342 kts | 148° |
| 2026-04-26 21:33 | 38.22429 | 12.23736 | 14052 ft | 340 kts | 147° |
| 2026-04-26 21:33 | 38.20466 | 12.25393 | 13651 ft | 338 kts | 148° |
| 2026-04-26 21:33 | 38.18512 | 12.27040 | 13255 ft | 336 kts | 147° |
| 2026-04-26 21:34 | 38.16569 | 12.28679 | 12854 ft | 334 kts | 147° |
| 2026-04-26 21:34 | 38.15289 | 12.29758 | 12591 ft | 333 kts | 147° |
| 2026-04-26 21:34 | 38.13363 | 12.31380 | 12192 ft | 331 kts | 147° |
| 2026-04-26 21:34 | 38.11446 | 12.32994 | 11797 ft | 329 kts | 147° |
| 2026-04-26 21:35 | 38.09541 | 12.34597 | 11404 ft | 328 kts | 147° |
| 2026-04-26 21:35 | 38.07647 | 12.36189 | 11014 ft | 326 kts | 147° |
| 2026-04-26 21:35 | 38.05764 | 12.37771 | 10657 ft | 323 kts | 147° |
| 2026-04-26 21:35 | 38.03924 | 12.39316 | 10541 ft | 312 kts | 147° |
| 2026-04-26 21:36 | 38.02138 | 12.40816 | 10396 ft | 304 kts | 147° |
| 2026-04-26 21:36 | 38.00398 | 12.42276 | 10263 ft | 295 kts | 147° |
| 2026-04-26 21:36 | 37.98708 | 12.43693 | 10127 ft | 288 kts | 147° |
| 2026-04-26 21:36 | 37.97045 | 12.45087 | 9836 ft | 286 kts | 147° |
| 2026-04-26 21:37 | 37.95389 | 12.46474 | 9558 ft | 284 kts | 147° |
| 2026-04-26 21:37 | 37.93746 | 12.47850 | 9275 ft | 283 kts | 147° |
| 2026-04-26 21:37 | 37.92110 | 12.49218 | 8991 ft | 281 kts | 147° |
| 2026-04-26 21:37 | 37.90481 | 12.50578 | 8705 ft | 280 kts | 147° |
| 2026-04-26 21:38 | 37.88838 | 12.51885 | 8415 ft | 279 kts | 151° |
| 2026-04-26 21:38 | 37.87126 | 12.53027 | 8123 ft | 278 kts | 153° |
| 2026-04-26 21:38 | 37.85402 | 12.54125 | 7831 ft | 277 kts | 153° |
| 2026-04-26 21:38 | 37.83688 | 12.55217 | 7542 ft | 276 kts | 153° |
| 2026-04-26 21:39 | 37.81982 | 12.56312 | 7257 ft | 274 kts | 153° |
| 2026-04-26 21:39 | 37.80287 | 12.57407 | 6974 ft | 273 kts | 153° |
| 2026-04-26 21:39 | 37.78601 | 12.58500 | 6691 ft | 272 kts | 153° |
| 2026-04-26 21:39 | 37.76921 | 12.59593 | 6408 ft | 271 kts | 153° |
| 2026-04-26 21:40 | 37.75250 | 12.60680 | 6126 ft | 269 kts | 153° |
| 2026-04-26 21:40 | 37.73586 | 12.61761 | 5843 ft | 269 kts | 153° |
| 2026-04-26 21:40 | 37.71953 | 12.62824 | 5562 ft | 267 kts | 152° |
| 2026-04-26 21:40 | 37.70442 | 12.64232 | 5139 ft | 267 kts | 129° |
| 2026-04-26 21:41 | 37.69608 | 12.66228 | 4877 ft | 257 kts | 104° |
| 2026-04-26 21:41 | 37.69495 | 12.68400 | 4761 ft | 243 kts | 81° |
| 2026-04-26 21:41 | 37.70016 | 12.70356 | 4633 ft | 230 kts | 59° |
| 2026-04-26 21:41 | 37.71000 | 12.71857 | 4522 ft | 217 kts | 39° |
| 2026-04-26 21:42 | 37.72291 | 12.72803 | 4446 ft | 217 kts | 19° |
| 2026-04-26 21:42 | 37.73796 | 12.73168 | 4372 ft | 225 kts | 0° |
| 2026-04-26 21:42 | 37.75329 | 12.72868 | 4245 ft | 222 kts | 341° |
| 2026-04-26 21:42 | 37.76677 | 12.71969 | 4028 ft | 217 kts | 319° |
| 2026-04-26 21:43 | 37.77696 | 12.70632 | 3789 ft | 207 kts | 311° |
| 2026-04-26 21:43 | 37.78597 | 12.69263 | 3560 ft | 200 kts | 309° |
| 2026-04-26 21:43 | 37.79447 | 12.67896 | 3361 ft | 196 kts | 308° |
| 2026-04-26 21:43 | 37.80262 | 12.66563 | 3287 ft | 185 kts | 308° |
| 2026-04-26 21:44 | 37.81040 | 12.65292 | 3062 ft | 181 kts | 308° |
| 2026-04-26 21:44 | 37.81804 | 12.64044 | 2831 ft | 178 kts | 308° |
| 2026-04-26 21:44 | 37.82555 | 12.62813 | 2601 ft | 175 kts | 308° |
| 2026-04-26 21:44 | 37.83298 | 12.61601 | 2371 ft | 173 kts | 308° |
| 2026-04-26 21:45 | 37.84029 | 12.60403 | 2143 ft | 171 kts | 308° |
| 2026-04-26 21:45 | 37.84741 | 12.59240 | 1924 ft | 162 kts | 308° |
| 2026-04-26 21:45 | 37.85416 | 12.58137 | 1707 ft | 157 kts | 308° |
| 2026-04-26 21:45 | 37.86077 | 12.57057 | 1545 ft | 152 kts | 308° |
| 2026-04-26 21:46 | 37.86727 | 12.55997 | 1313 ft | 150 kts | 308° |
| 2026-04-26 21:46 | 37.87362 | 12.54955 | 1097 ft | 149 kts | 308° |
| 2026-04-26 21:46 | 37.87989 | 12.53928 | 920 ft | 147 kts | 308° |
| 2026-04-26 21:46 | 37.88620 | 12.52906 | 710 ft | 146 kts | 308° |
| 2026-04-26 21:47 | 37.89234 | 12.51900 | 511 ft | 145 kts | 308° |
| 2026-04-26 21:47 | 37.89859 | 12.50884 | 287 ft | 147 kts | 308° |
| 2026-04-26 21:47 | 37.90487 | 12.49861 | 72 ft | 146 kts | 308° |
| 2026-04-26 21:47 | 37.91074 | 12.48907 | 27 ft | 117 kts | 308° |
| 2026-04-26 21:48 | 37.91439 | 12.48313 | 21 ft | 54 kts | 308° |
| 2026-04-26 21:48 | 37.91572 | 12.48125 | 18 ft | 15 kts | 334° |
| 2026-04-26 21:48 | 37.91574 | 12.48083 | 16 ft | 3 kts | 163° |
| 2026-04-26 21:48 | 37.91562 | 12.48107 | 17 ft | 4 kts | 123° |
| 2026-04-26 21:49 | 37.91529 | 12.48166 | 20 ft | 12 kts | 128° |
| 2026-04-26 21:49 | 37.91459 | 12.48279 | 20 ft | 20 kts | 128° |
| 2026-04-26 21:49 | 37.91361 | 12.48438 | 28 ft | 25 kts | 128° |
| 2026-04-26 21:49 | 37.91244 | 12.48627 | 27 ft | 27 kts | 128° |
| 2026-04-26 21:50 | 37.91134 | 12.48805 | 27 ft | 25 kts | 127° |
| 2026-04-26 21:50 | 37.91032 | 12.48972 | 27 ft | 23 kts | 128° |
| 2026-04-26 21:50 | 37.90936 | 12.49130 | 27 ft | 22 kts | 128° |
| 2026-04-26 21:50 | 37.90842 | 12.49283 | 31 ft | 22 kts | 128° |
| 2026-04-26 21:51 | 37.90732 | 12.49405 | 33 ft | 21 kts | 148° |
| 2026-04-26 21:51 | 37.90602 | 12.49477 | 34 ft | 20 kts | 157° |
| 2026-04-26 21:51 | 37.90487 | 12.49538 | 32 ft | 13 kts | 157° |
| 2026-04-26 21:51 | 37.90410 | 12.49538 | 30 ft | 10 kts | 175° |
| 2026-04-26 21:52 | 37.90359 | 12.49595 | 28 ft | 10 kts | 124° |
| 2026-04-26 21:52 | 37.90328 | 12.49592 | 30 ft | 5 kts | 252° |
| 2026-04-26 21:52 | 37.90322 | 12.49550 | 30 ft | 0 kts | 260° |